sensor_id;sensor_type;location;lat;lon;timestamp;pressure;altitude;pressure_sealevel;temperature;humidity
53514;BME280;39768;54.148;12.174;2022-10-17T00:02:33;102081.16;;;11.29;100.00
53514;BME280;39768;54.148;12.174;2022-10-17T00:06:35;102059.66;;;10.82;100.00
53514;BME280;39768;54.148;12.174;2022-10-17T00:10:36;102075.66;;;10.91;100.00
53514;BME280;39768;54.148;12.174;2022-10-17T00:14:37;102081.06;;;11.05;100.00
53514;BME280;39768;54.148;12.174;2022-10-17T00:18:39;102080.38;;;11.42;100.00
53514;BME280;39768;54.148;12.174;2022-10-17T00:22:41;102083.00;;;11.41;100.00
53514;BME280;39768;54.148;12.174;2022-10-17T00:26:42;102093.66;;;11.45;100.00
53514;BME280;39768;54.148;12.174;2022-10-17T00:30:43;102079.44;;;11.43;100.00
53514;BME280;39768;54.148;12.174;2022-10-17T00:34:45;102060.22;;;10.37;100.00
53514;BME280;39768;54.148;12.174;2022-10-17T00:38:48;102065.88;;;10.82;100.00
53514;BME280;39768;54.148;12.174;2022-10-17T00:42:50;102072.38;;;11.39;100.00
53514;BME280;39768;54.148;12.174;2022-10-17T00:46:53;102058.78;;;10.81;100.00
53514;BME280;39768;54.148;12.174;2022-10-17T00:50:54;102076.72;;;11.22;100.00
53514;BME280;39768;54.148;12.174;2022-10-17T00:55:30;102076.75;;;11.25;100.00
53514;BME280;39768;54.148;12.174;2022-10-17T00:59:23;102085.63;;;11.31;100.00
53514;BME280;39768;54.148;12.174;2022-10-17T01:03:25;102074.25;;;11.68;100.00
53514;BME280;39768;54.148;12.174;2022-10-17T01:07:27;102088.31;;;11.44;100.00
53514;BME280;39768;54.148;12.174;2022-10-17T01:15:58;102091.94;;;11.62;100.00
53514;BME280;39768;54.148;12.174;2022-10-17T01:24:32;102085.78;;;11.74;100.00
53514;BME280;39768;54.148;12.174;2022-10-17T01:29:24;102075.13;;;11.65;100.00
53514;BME280;39768;54.148;12.174;2022-10-17T01:33:26;102084.09;;;12.02;100.00
53514;BME280;39768;54.148;12.174;2022-10-17T01:37:32;102092.16;;;12.29;100.00
53514;BME280;39768;54.148;12.174;2022-10-17T01:45:41;102078.81;;;12.16;100.00
53514;BME280;39768;54.148;12.174;2022-10-17T01:49:43;102060.16;;;12.05;100.00
53514;BME280;39768;54.148;12.174;2022-10-17T01:53:48;102069.06;;;12.16;100.00
53514;BME280;39768;54.148;12.174;2022-10-17T01:57:53;102053.97;;;12.12;100.00
53514;BME280;39768;54.148;12.174;2022-10-17T02:01:56;102057.50;;;12.64;100.00
53514;BME280;39768;54.148;12.174;2022-10-17T02:05:58;102069.91;;;12.79;100.00
53514;BME280;39768;54.148;12.174;2022-10-17T02:10:02;102078.75;;;12.92;100.00
53514;BME280;39768;54.148;12.174;2022-10-17T02:18:19;102070.81;;;12.74;100.00
53514;BME280;39768;54.148;12.174;2022-10-17T02:22:34;102064.53;;;12.94;100.00
53514;BME280;39768;54.148;12.174;2022-10-17T02:26:43;102077.88;;;13.05;100.00
53514;BME280;39768;54.148;12.174;2022-10-17T02:34:48;102070.72;;;13.22;100.00
53514;BME280;39768;54.148;12.174;2022-10-17T02:38:51;102069.84;;;13.17;100.00
53514;BME280;39768;54.148;12.174;2022-10-17T02:42:54;102073.38;;;13.07;100.00
53514;BME280;39768;54.148;12.174;2022-10-17T02:47:15;102069.81;;;13.22;100.00
53514;BME280;39768;54.148;12.174;2022-10-17T02:55:30;102066.25;;;13.23;100.00
53514;BME280;39768;54.148;12.174;2022-10-17T02:59:33;102065.44;;;12.96;100.00
53514;BME280;39768;54.148;12.174;2022-10-17T03:03:36;102060.97;;;12.94;100.00
53514;BME280;39768;54.148;12.174;2022-10-17T03:07:38;102063.53;;;13.38;100.00
53514;BME280;39768;54.148;12.174;2022-10-17T03:11:40;102073.25;;;13.60;100.00
53514;BME280;39768;54.148;12.174;2022-10-17T03:15:42;102065.16;;;13.69;100.00
53514;BME280;39768;54.148;12.174;2022-10-17T03:19:44;102057.13;;;13.79;100.00
53514;BME280;39768;54.148;12.174;2022-10-17T03:23:45;102059.81;;;13.71;100.00
53514;BME280;39768;54.148;12.174;2022-10-17T03:27:48;102057.97;;;13.81;100.00
53514;BME280;39768;54.148;12.174;2022-10-17T03:31:49;102055.44;;;13.59;100.00
53514;BME280;39768;54.148;12.174;2022-10-17T03:35:51;102054.41;;;13.80;100.00
53514;BME280;39768;54.148;12.174;2022-10-17T03:39:54;102053.41;;;13.99;100.00
53514;BME280;39768;54.148;12.174;2022-10-17T03:43:55;102047.06;;;14.19;100.00
53514;BME280;39768;54.148;12.174;2022-10-17T03:47:58;102046.97;;;14.29;100.00
53514;BME280;39768;54.148;12.174;2022-10-17T03:52:00;102054.19;;;14.15;100.00
53514;BME280;39768;54.148;12.174;2022-10-17T04:00:16;102052.41;;;14.17;100.00
53514;BME280;39768;54.148;12.174;2022-10-17T04:04:26;102047.03;;;14.20;100.00
53514;BME280;39768;54.148;12.174;2022-10-17T04:08:28;102059.50;;;14.23;100.00
53514;BME280;39768;54.148;12.174;2022-10-17T04:12:40;102064.63;;;14.50;100.00
53514;BME280;39768;54.148;12.174;2022-10-17T04:16:41;102047.16;;;14.08;100.00
53514;BME280;39768;54.148;12.174;2022-10-17T04:20:49;102036.28;;;14.26;100.00
53514;BME280;39768;54.148;12.174;2022-10-17T04:24:51;102027.22;;;14.52;100.00
53514;BME280;39768;54.148;12.174;2022-10-17T04:29:05;102024.44;;;14.62;100.00
53514;BME280;39768;54.148;12.174;2022-10-17T04:33:07;102021.78;;;14.58;100.00
53514;BME280;39768;54.148;12.174;2022-10-17T04:37:09;102030.84;;;14.43;100.00
53514;BME280;39768;54.148;12.174;2022-10-17T04:41:12;102024.47;;;14.56;100.00
53514;BME280;39768;54.148;12.174;2022-10-17T04:45:14;102005.75;;;14.58;100.00
53514;BME280;39768;54.148;12.174;2022-10-17T04:49:16;102005.72;;;14.62;100.00
53514;BME280;39768;54.148;12.174;2022-10-17T04:53:21;102008.53;;;14.50;100.00
53514;BME280;39768;54.148;12.174;2022-10-17T04:57:23;102002.19;;;14.60;100.00
53514;BME280;39768;54.148;12.174;2022-10-17T05:01:32;102009.19;;;14.70;100.00
53514;BME280;39768;54.148;12.174;2022-10-17T05:05:37;102004.69;;;14.74;100.00
53514;BME280;39768;54.148;12.174;2022-10-17T05:09:39;102002.56;;;15.03;100.00
53514;BME280;39768;54.148;12.174;2022-10-17T05:13:40;101990.25;;;14.90;100.00
53514;BME280;39768;54.148;12.174;2022-10-17T05:17:42;101981.47;;;14.80;100.00
53514;BME280;39768;54.148;12.174;2022-10-17T05:21:44;101986.81;;;14.82;100.00
53514;BME280;39768;54.148;12.174;2022-10-17T05:25:46;101981.47;;;14.80;100.00
53514;BME280;39768;54.148;12.174;2022-10-17T05:29:47;101984.91;;;14.92;100.00
53514;BME280;39768;54.148;12.174;2022-10-17T05:34:01;101978.84;;;14.74;100.00
53514;BME280;39768;54.148;12.174;2022-10-17T05:38:06;101981.47;;;14.80;100.00
53514;BME280;39768;54.148;12.174;2022-10-17T05:42:09;101984.97;;;14.84;100.00
53514;BME280;39768;54.148;12.174;2022-10-17T05:46:10;101987.72;;;14.81;100.00
53514;BME280;39768;54.148;12.174;2022-10-17T05:50:12;101981.44;;;14.84;100.00
53514;BME280;39768;54.148;12.174;2022-10-17T05:54:36;101982.19;;;14.96;100.00
53514;BME280;39768;54.148;12.174;2022-10-17T05:58:41;101984.75;;;15.02;100.00
53514;BME280;39768;54.148;12.174;2022-10-17T06:03:07;101991.88;;;15.03;100.00
53514;BME280;39768;54.148;12.174;2022-10-17T06:07:10;101994.41;;;15.14;100.00
53514;BME280;39768;54.148;12.174;2022-10-17T06:11:12;101991.75;;;15.14;100.00
53514;BME280;39768;54.148;12.174;2022-10-17T06:15:14;101984.69;;;15.10;100.00
53514;BME280;39768;54.148;12.174;2022-10-17T06:19:19;101977.53;;;15.10;100.00
53514;BME280;39768;54.148;12.174;2022-10-17T06:23:21;101980.97;;;15.22;100.00
53514;BME280;39768;54.148;12.174;2022-10-17T06:27:42;101974.91;;;15.06;100.00
53514;BME280;39768;54.148;12.174;2022-10-17T06:31:45;101967.78;;;15.06;100.00
53514;BME280;39768;54.148;12.174;2022-10-17T06:35:50;101985.56;;;15.12;100.00
53514;BME280;39768;54.148;12.174;2022-10-17T06:39:52;101983.69;;;15.15;100.00
53514;BME280;39768;54.148;12.174;2022-10-17T06:43:56;101972.75;;;15.34;100.00
53514;BME280;39768;54.148;12.174;2022-10-17T06:48:23;101972.75;;;15.34;100.00
53514;BME280;39768;54.148;12.174;2022-10-17T06:52:42;101959.16;;;15.49;100.00
53514;BME280;39768;54.148;12.174;2022-10-17T06:57:01;101964.75;;;15.34;100.00
53514;BME280;39768;54.148;12.174;2022-10-17T07:01:20;101952.88;;;15.56;100.00
53514;BME280;39768;54.148;12.174;2022-10-17T07:05:25;101956.00;;;15.82;100.00
53514;BME280;39768;54.148;12.174;2022-10-17T07:09:27;101953.22;;;15.88;100.00
53514;BME280;39768;54.148;12.174;2022-10-17T07:13:31;101954.03;;;15.94;100.00
53514;BME280;39768;54.148;12.174;2022-10-17T07:17:39;101953.19;;;15.90;100.00
53514;BME280;39768;54.148;12.174;2022-10-17T07:21:41;101946.53;;;16.15;100.00
53514;BME280;39768;54.148;12.174;2022-10-17T07:25:44;101947.94;;;16.36;100.00
53514;BME280;39768;54.148;12.174;2022-10-17T07:29:46;101954.50;;;16.68;100.00
53514;BME280;39768;54.148;12.174;2022-10-17T07:33:58;101950.13;;;16.64;100.00
53514;BME280;39768;54.148;12.174;2022-10-17T07:37:59;101940.69;;;16.89;100.00
53514;BME280;39768;54.148;12.174;2022-10-17T07:42:01;101944.47;;;16.77;100.00
53514;BME280;39768;54.148;12.174;2022-10-17T07:46:03;101945.53;;;17.12;100.00
53514;BME280;39768;54.148;12.174;2022-10-17T07:50:07;101948.69;;;17.32;100.00
53514;BME280;39768;54.148;12.174;2022-10-17T07:54:08;101944.72;;;17.50;100.00
53514;BME280;39768;54.148;12.174;2022-10-17T07:58:10;101950.69;;;17.61;100.00
53514;BME280;39768;54.148;12.174;2022-10-17T08:02:15;101956.97;;;17.21;100.00
53514;BME280;39768;54.148;12.174;2022-10-17T08:06:18;101958.81;;;17.58;100.00
53514;BME280;39768;54.148;12.174;2022-10-17T08:10:20;101946.97;;;17.68;100.00
53514;BME280;39768;54.148;12.174;2022-10-17T08:14:22;101945.88;;;17.77;100.00
53514;BME280;39768;54.148;12.174;2022-10-17T08:18:23;101932.25;;;18.20;100.00
53514;BME280;39768;54.148;12.174;2022-10-17T08:22:26;101929.63;;;18.17;100.00
53514;BME280;39768;54.148;12.174;2022-10-17T08:26:28;101932.78;;;18.32;100.00
53514;BME280;39768;54.148;12.174;2022-10-17T08:30:30;101926.09;;;18.81;100.00
53514;BME280;39768;54.148;12.174;2022-10-17T08:34:32;101934.00;;;18.55;100.00
53514;BME280;39768;54.148;12.174;2022-10-17T08:38:33;101938.38;;;18.90;100.00
53514;BME280;39768;54.148;12.174;2022-10-17T08:46:39;101931.28;;;19.17;100.00
53514;BME280;39768;54.148;12.174;2022-10-17T08:55:02;101922.50;;;19.12;100.00
53514;BME280;39768;54.148;12.174;2022-10-17T08:59:04;101917.25;;;19.35;100.00
53514;BME280;39768;54.148;12.174;2022-10-17T09:03:16;101912.94;;;19.00;100.00
53514;BME280;39768;54.148;12.174;2022-10-17T09:07:40;101878.31;;;19.17;100.00
53514;BME280;39768;54.148;12.174;2022-10-17T09:15:51;101900.44;;;19.84;100.00
53514;BME280;39768;54.148;12.174;2022-10-17T09:20:20;101897.84;;;20.06;100.00
53514;BME280;39768;54.148;12.174;2022-10-17T09:24:20;101891.09;;;20.46;100.00
53514;BME280;39768;54.148;12.174;2022-10-17T09:28:32;101899.38;;;20.15;100.00
53514;BME280;39768;54.148;12.174;2022-10-17T09:32:35;101895.31;;;19.75;100.00
53514;BME280;39768;54.148;12.174;2022-10-17T09:36:38;101892.03;;;20.18;100.00
53514;BME280;39768;54.148;12.174;2022-10-17T09:40:40;101888.84;;;20.07;100.00
53514;BME280;39768;54.148;12.174;2022-10-17T09:44:46;101905.78;;;19.86;100.00
53514;BME280;39768;54.148;12.174;2022-10-17T09:48:49;101896.69;;;20.64;100.00
53514;BME280;39768;54.148;12.174;2022-10-17T09:54:46;101901.88;;;20.70;100.00
53514;BME280;39768;54.148;12.174;2022-10-17T09:58:50;101896.81;;;20.85;100.00
53514;BME280;39768;54.148;12.174;2022-10-17T10:03:07;101885.88;;;20.64;100.00
53514;BME280;39768;54.148;12.174;2022-10-17T10:07:09;101875.47;;;21.02;100.00
53514;BME280;39768;54.148;12.174;2022-10-17T10:11:12;101868.13;;;21.05;100.00
53514;BME280;39768;54.148;12.174;2022-10-17T10:15:37;101874.16;;;21.12;100.00
53514;BME280;39768;54.148;12.174;2022-10-17T10:19:47;101868.22;;;21.26;100.00
53514;BME280;39768;54.148;12.174;2022-10-17T10:24:03;101874.19;;;20.89;100.00
53514;BME280;39768;54.148;12.174;2022-10-17T10:28:09;101870.34;;;21.18;100.00
53514;BME280;39768;54.148;12.174;2022-10-17T10:32:15;101868.56;;;21.17;100.00
53514;BME280;39768;54.148;12.174;2022-10-17T10:36:19;101857.00;;;21.13;100.00
53514;BME280;39768;54.148;12.174;2022-10-17T10:40:33;101863.03;;;21.43;100.00
53514;BME280;39768;54.148;12.174;2022-10-17T10:44:37;101861.25;;;21.42;100.00
53514;BME280;39768;54.148;12.174;2022-10-17T10:48:48;101866.97;;;21.56;100.00
53514;BME280;39768;54.148;12.174;2022-10-17T10:52:52;101849.75;;;21.59;100.00
53514;BME280;39768;54.148;12.174;2022-10-17T10:56:57;101849.31;;;21.69;100.00
53514;BME280;39768;54.148;12.174;2022-10-17T11:01:00;101857.38;;;21.91;100.00
53514;BME280;39768;54.148;12.174;2022-10-17T11:05:05;101852.19;;;22.27;100.00
53514;BME280;39768;54.148;12.174;2022-10-17T11:13:19;101852.63;;;22.38;100.00
53514;BME280;39768;54.148;12.174;2022-10-17T11:21:44;101845.31;;;22.20;100.00
53514;BME280;39768;54.148;12.174;2022-10-17T11:25:48;101838.09;;;22.21;100.00
53514;BME280;39768;54.148;12.174;2022-10-17T11:29:50;101844.00;;;22.49;100.00
53514;BME280;39768;54.148;12.174;2022-10-17T11:33:56;101844.56;;;22.37;100.00
53514;BME280;39768;54.148;12.174;2022-10-17T11:38:09;101855.25;;;22.40;100.00
53514;BME280;39768;54.148;12.174;2022-10-17T11:42:17;101852.38;;;22.43;100.00
53514;BME280;39768;54.148;12.174;2022-10-17T11:46:21;101850.03;;;22.35;100.00
53514;BME280;39768;54.148;12.174;2022-10-17T11:50:29;101858.75;;;22.42;100.00
53514;BME280;39768;54.148;12.174;2022-10-17T11:54:55;101852.81;;;22.13;100.00
53514;BME280;39768;54.148;12.174;2022-10-17T11:59:11;101842.00;;;22.34;100.00
53514;BME280;39768;54.148;12.174;2022-10-17T12:11:52;101858.28;;;23.29;100.00
53514;BME280;39768;54.148;12.174;2022-10-17T12:15:55;101850.44;;;23.04;100.00
53514;BME280;39768;54.148;12.174;2022-10-17T12:20:16;101844.00;;;23.07;100.00
53514;BME280;39768;54.148;12.174;2022-10-17T12:24:34;101827.19;;;22.81;100.00
53514;BME280;39768;54.148;12.174;2022-10-17T12:28:43;101830.97;;;22.77;100.00
53514;BME280;39768;54.148;12.174;2022-10-17T12:32:52;101834.56;;;22.78;100.00
53514;BME280;39768;54.148;12.174;2022-10-17T12:37:09;101838.31;;;22.74;100.00
53514;BME280;39768;54.148;12.174;2022-10-17T12:41:11;101827.41;;;22.75;100.00
53514;BME280;39768;54.148;12.174;2022-10-17T12:45:58;101806.47;;;22.80;100.00
53514;BME280;39768;54.148;12.174;2022-10-17T12:57:53;101814.53;;;23.37;100.00
53514;BME280;39768;54.148;12.174;2022-10-17T13:01:57;101805.91;;;23.65;100.00
53514;BME280;39768;54.148;12.174;2022-10-17T13:06:01;101804.56;;;23.73;100.00
53514;BME280;39768;54.148;12.174;2022-10-17T13:10:03;101798.28;;;23.73;100.00
53514;BME280;39768;54.148;12.174;2022-10-17T13:14:09;101803.75;;;23.35;100.00
53514;BME280;39768;54.148;12.174;2022-10-17T13:18:16;101796.09;;;23.26;100.00
53514;BME280;39768;54.148;12.174;2022-10-17T13:22:21;101779.94;;;23.06;100.00
53514;BME280;39768;54.148;12.174;2022-10-17T13:26:24;101780.47;;;22.95;100.00
53514;BME280;39768;54.148;12.174;2022-10-17T13:30:30;101774.91;;;23.34;100.00
53514;BME280;39768;54.148;12.174;2022-10-17T13:34:32;101776.75;;;22.98;100.00
53514;BME280;39768;54.148;12.174;2022-10-17T13:38:36;101771.91;;;22.85;100.00
53514;BME280;39768;54.148;12.174;2022-10-17T13:42:42;101768.06;;;22.71;100.00
53514;BME280;39768;54.148;12.174;2022-10-17T13:46:44;101769.88;;;22.91;100.00
53514;BME280;39768;54.148;12.174;2022-10-17T13:50:46;101769.06;;;22.89;100.00
53514;BME280;39768;54.148;12.174;2022-10-17T13:54:50;101778.50;;;22.80;100.00
53514;BME280;39768;54.148;12.174;2022-10-17T13:58:54;101792.44;;;22.71;100.00
53514;BME280;39768;54.148;12.174;2022-10-17T14:02:57;101795.44;;;22.65;100.00
53514;BME280;39768;54.148;12.174;2022-10-17T14:06:58;101797.06;;;22.50;100.00
53514;BME280;39768;54.148;12.174;2022-10-17T14:11:00;101803.66;;;22.63;100.00
53514;BME280;39768;54.148;12.174;2022-10-17T14:15:02;101837.09;;;22.42;100.00
53514;BME280;39768;54.148;12.174;2022-10-17T14:19:17;101838.72;;;22.46;100.00
53514;BME280;39768;54.148;12.174;2022-10-17T14:23:33;101846.03;;;22.44;100.00
53514;BME280;39768;54.148;12.174;2022-10-17T14:27:36;101872.19;;;22.25;100.00
53514;BME280;39768;54.148;12.174;2022-10-17T14:31:42;101888.53;;;22.22;100.00
53514;BME280;39768;54.148;12.174;2022-10-17T14:35:53;101886.03;;;22.17;100.00
53514;BME280;39768;54.148;12.174;2022-10-17T14:39:59;101881.38;;;22.21;100.00
53514;BME280;39768;54.148;12.174;2022-10-17T14:44:02;101901.78;;;22.07;100.00
53514;BME280;39768;54.148;12.174;2022-10-17T14:48:08;101914.38;;;22.08;100.00
53514;BME280;39768;54.148;12.174;2022-10-17T14:52:19;101912.84;;;22.01;100.00
53514;BME280;39768;54.148;12.174;2022-10-17T14:56:25;101922.72;;;22.02;100.00
53514;BME280;39768;54.148;12.174;2022-10-17T15:00:27;101919.09;;;22.03;100.00
53514;BME280;39768;54.148;12.174;2022-10-17T15:04:28;101921.41;;;21.91;100.00
53514;BME280;39768;54.148;12.174;2022-10-17T15:08:30;101918.75;;;21.89;100.00
53514;BME280;39768;54.148;12.174;2022-10-17T15:12:31;101916.44;;;21.80;100.00
53514;BME280;39768;54.148;12.174;2022-10-17T15:16:33;101891.66;;;21.91;100.00
53514;BME280;39768;54.148;12.174;2022-10-17T15:20:35;101910.41;;;21.73;100.00
53514;BME280;39768;54.148;12.174;2022-10-17T15:24:36;101914.56;;;21.60;100.00
53514;BME280;39768;54.148;12.174;2022-10-17T15:28:38;101878.91;;;21.72;100.00
53514;BME280;39768;54.148;12.174;2022-10-17T15:32:39;101863.09;;;22.05;100.00
53514;BME280;39768;54.148;12.174;2022-10-17T15:36:41;101914.75;;;21.56;100.00
53514;BME280;39768;54.148;12.174;2022-10-17T15:40:48;101915.25;;;21.43;100.00
53514;BME280;39768;54.148;12.174;2022-10-17T15:44:52;101901.78;;;21.42;100.00
53514;BME280;39768;54.148;12.174;2022-10-17T15:48:53;101885.53;;;21.43;100.00
53514;BME280;39768;54.148;12.174;2022-10-17T15:52:55;101907.53;;;21.09;100.00
53514;BME280;39768;54.148;12.174;2022-10-17T15:56:56;101899.44;;;21.09;100.00
53514;BME280;39768;54.148;12.174;2022-10-17T16:00:58;101881.63;;;21.05;100.00
53514;BME280;39768;54.148;12.174;2022-10-17T16:04:59;101879.00;;;21.04;100.00
53514;BME280;39768;54.148;12.174;2022-10-17T16:09:01;101878.50;;;20.69;100.00
53514;BME280;39768;54.148;12.174;2022-10-17T16:13:02;101880.53;;;20.63;100.00
53514;BME280;39768;54.148;12.174;2022-10-17T16:17:03;101880.38;;;20.67;100.00
53514;BME280;39768;54.148;12.174;2022-10-17T16:21:05;101891.78;;;20.51;100.00
53514;BME280;39768;54.148;12.174;2022-10-17T16:25:09;101919.94;;;20.44;100.00
53514;BME280;39768;54.148;12.174;2022-10-17T16:29:19;101922.69;;;20.42;100.00
53514;BME280;39768;54.148;12.174;2022-10-17T16:33:20;101927.72;;;20.26;100.00
53514;BME280;39768;54.148;12.174;2022-10-17T16:37:22;101940.00;;;20.08;100.00
53514;BME280;39768;54.148;12.174;2022-10-17T16:41:27;101949.03;;;20.07;100.00
53514;BME280;39768;54.148;12.174;2022-10-17T16:45:29;101955.91;;;20.18;100.00
53514;BME280;39768;54.148;12.174;2022-10-17T16:49:30;101954.88;;;20.20;100.00
53514;BME280;39768;54.148;12.174;2022-10-17T16:53:32;101966.56;;;20.21;100.00
53514;BME280;39768;54.148;12.174;2022-10-17T16:57:33;101983.28;;;20.04;100.00
53514;BME280;39768;54.148;12.174;2022-10-17T17:01:35;101982.63;;;19.97;100.00
53514;BME280;39768;54.148;12.174;2022-10-17T17:05:38;101993.41;;;19.97;100.00
53514;BME280;39768;54.148;12.174;2022-10-17T17:09:39;101992.50;;;20.25;100.00
53514;BME280;39768;54.148;12.174;2022-10-17T17:13:41;102007.31;;;20.12;100.00
53514;BME280;39768;54.148;12.174;2022-10-17T17:17:42;102011.41;;;20.23;100.00
53514;BME280;39768;54.148;12.174;2022-10-17T17:21:53;102004.88;;;19.76;100.00
53514;BME280;39768;54.148;12.174;2022-10-17T17:25:56;102010.88;;;19.86;100.00
53514;BME280;39768;54.148;12.174;2022-10-17T17:29:58;102017.72;;;19.96;100.00
53514;BME280;39768;54.148;12.174;2022-10-17T17:33:59;102025.69;;;19.73;100.00
53514;BME280;39768;54.148;12.174;2022-10-17T17:38:01;102033.88;;;19.68;100.00
53514;BME280;39768;54.148;12.174;2022-10-17T17:42:03;102031.72;;;19.79;100.00
53514;BME280;39768;54.148;12.174;2022-10-17T17:46:05;102041.59;;;19.80;100.00
53514;BME280;39768;54.148;12.174;2022-10-17T17:50:06;102039.53;;;19.59;100.00
53514;BME280;39768;54.148;12.174;2022-10-17T17:54:08;102039.19;;;19.71;100.00
53514;BME280;39768;54.148;12.174;2022-10-17T17:58:12;102041.38;;;19.58;100.00
53514;BME280;39768;54.148;12.174;2022-10-17T18:02:14;102050.00;;;19.69;100.00
53514;BME280;39768;54.148;12.174;2022-10-17T18:06:15;102056.00;;;19.48;100.00
53514;BME280;39768;54.148;12.174;2022-10-17T18:10:17;102047.81;;;19.53;100.00
53514;BME280;39768;54.148;12.174;2022-10-17T18:14:19;102052.97;;;19.29;100.00
53514;BME280;39768;54.148;12.174;2022-10-17T18:18:24;102058.06;;;19.40;100.00
53514;BME280;39768;54.148;12.174;2022-10-17T18:22:26;102051.38;;;19.55;100.00
53514;BME280;39768;54.148;12.174;2022-10-17T18:26:29;102064.66;;;19.59;100.00
53514;BME280;39768;54.148;12.174;2022-10-17T18:30:30;102059.91;;;19.38;100.00
53514;BME280;39768;54.148;12.174;2022-10-17T18:34:34;102065.88;;;19.49;100.00
53514;BME280;39768;54.148;12.174;2022-10-17T18:38:36;102081.06;;;19.52;100.00
53514;BME280;39768;54.148;12.174;2022-10-17T18:42:40;102090.03;;;19.52;100.00
53514;BME280;39768;54.148;12.174;2022-10-17T18:46:42;102099.38;;;19.39;100.00
53514;BME280;39768;54.148;12.174;2022-10-17T18:50:45;102100.03;;;19.47;100.00
53514;BME280;39768;54.148;12.174;2022-10-17T18:54:47;102109.34;;;19.35;100.00
53514;BME280;39768;54.148;12.174;2022-10-17T18:58:48;102101.06;;;19.43;100.00
53514;BME280;39768;54.148;12.174;2022-10-17T19:02:50;102108.38;;;19.38;100.00
53514;BME280;39768;54.148;12.174;2022-10-17T19:06:51;102116.50;;;19.36;100.00
53514;BME280;39768;54.148;12.174;2022-10-17T19:10:53;102117.78;;;19.23;100.00
53514;BME280;39768;54.148;12.174;2022-10-17T19:14:54;102120.63;;;19.17;100.00
53514;BME280;39768;54.148;12.174;2022-10-17T19:18:57;102125.78;;;19.26;100.00
53514;BME280;39768;54.148;12.174;2022-10-17T19:22:59;102128.38;;;18.97;100.00
53514;BME280;39768;54.148;12.174;2022-10-17T19:27:00;102129.44;;;19.24;100.00
53514;BME280;39768;54.148;12.174;2022-10-17T19:31:04;102128.47;;;19.26;100.00
53514;BME280;39768;54.148;12.174;2022-10-17T19:35:06;102131.28;;;19.22;100.00
53514;BME280;39768;54.148;12.174;2022-10-17T19:39:09;102128.97;;;19.41;100.00
53514;BME280;39768;54.148;12.174;2022-10-17T19:43:12;102128.06;;;19.40;100.00
53514;BME280;39768;54.148;12.174;2022-10-17T19:47:13;102135.06;;;19.46;100.00
53514;BME280;39768;54.148;12.174;2022-10-17T19:51:15;102135.19;;;19.43;100.00
53514;BME280;39768;54.148;12.174;2022-10-17T19:55:17;102129.97;;;19.36;100.00
53514;BME280;39768;54.148;12.174;2022-10-17T19:59:18;102130.00;;;19.35;100.00
53514;BME280;39768;54.148;12.174;2022-10-17T20:03:20;102137.06;;;19.39;100.00
53514;BME280;39768;54.148;12.174;2022-10-17T20:07:21;102132.19;;;19.55;100.00
53514;BME280;39768;54.148;12.174;2022-10-17T20:11:23;102135.88;;;19.51;100.00
53514;BME280;39768;54.148;12.174;2022-10-17T20:15:25;102143.34;;;19.40;100.00
53514;BME280;39768;54.148;12.174;2022-10-17T20:19:26;102149.91;;;19.29;100.00
53514;BME280;39768;54.148;12.174;2022-10-17T20:23:28;102164.97;;;19.36;100.00
53514;BME280;39768;54.148;12.174;2022-10-17T20:27:29;102160.44;;;19.38;100.00
53514;BME280;39768;54.148;12.174;2022-10-17T20:31:30;102158.34;;;19.50;100.00
53514;BME280;39768;54.148;12.174;2022-10-17T20:35:32;102173.53;;;19.52;100.00
53514;BME280;39768;54.148;12.174;2022-10-17T20:39:33;102175.66;;;19.40;100.00
53514;BME280;39768;54.148;12.174;2022-10-17T20:43:35;102185.09;;;19.23;100.00
53514;BME280;39768;54.148;12.174;2022-10-17T20:47:36;102197.75;;;19.54;100.00
53514;BME280;39768;54.148;12.174;2022-10-17T20:51:48;102199.59;;;19.52;100.00
53514;BME280;39768;54.148;12.174;2022-10-17T20:55:59;102206.78;;;19.17;100.00
53514;BME280;39768;54.148;12.174;2022-10-17T21:00:00;102206.13;;;19.08;100.00
53514;BME280;39768;54.148;12.174;2022-10-17T21:04:02;102213.84;;;19.21;100.00
53514;BME280;39768;54.148;12.174;2022-10-17T21:08:24;102208.28;;;18.93;100.00
53514;BME280;39768;54.148;12.174;2022-10-17T21:12:25;102211.56;;;19.06;100.00
53514;BME280;39768;54.148;12.174;2022-10-17T21:16:43;102217.34;;;18.89;100.00
53514;BME280;39768;54.148;12.174;2022-10-17T21:20:45;102218.88;;;18.99;100.00
53514;BME280;39768;54.148;12.174;2022-10-17T21:24:46;102222.03;;;19.17;100.00
53514;BME280;39768;54.148;12.174;2022-10-17T21:28:47;102228.63;;;19.05;100.00
53514;BME280;39768;54.148;12.174;2022-10-17T21:32:51;102226.56;;;19.15;100.00
53514;BME280;39768;54.148;12.174;2022-10-17T21:36:54;102230.16;;;19.15;100.00
53514;BME280;39768;54.148;12.174;2022-10-17T21:40:55;102228.03;;;18.94;100.00
53514;BME280;39768;54.148;12.174;2022-10-17T21:44:56;102230.34;;;19.09;100.00
53514;BME280;39768;54.148;12.174;2022-10-17T21:48:59;102227.19;;;18.90;100.00
53514;BME280;39768;54.148;12.174;2022-10-17T21:53:00;102241.53;;;18.91;100.00
53514;BME280;39768;54.148;12.174;2022-10-17T21:57:02;102239.00;;;18.85;100.00